KOLV/OLV METAR and TAF weather

Enter ICAO airport designator
Station Type Date Time Source
KOLV METAR 2020/04/04 04:15 UTC NOAA

KOLV 040415Z AUTO 00000KT 10SM SCT060 15/12 A3002 RMK A01


Station Type Date Time Source
KOLV Decoded METAR 2020/04/04 04:15 UTC NOAA

Olive Branch, Olive Branch Airport, MS, United States (KOLV) 34-58-44N 089-47-13W
Apr 04, 2020 - 12:15 AM EDT / 2020.04.04 0415 UTC
Wind: Calm:0
Visibility: 10 mile(s):0
Sky conditions: partly cloudy
Temperature: 59 F (15 C)
Dew Point: 53 F (12 C)
Relative Humidity: 82%
Pressure (altimeter): 30.02 in. Hg (1016 hPa)
ob: KOLV 040415Z AUTO 00000KT 10SM SCT060 15/12 A3002 RMK A01
cycle: 4

Station Type Date Time Source
KOLV TAF UTC NOAA

Error!

Example: see airport list